sensor_id;sensor_type;location;lat;lon;timestamp;temperature;humidity
792;DHT22;379;49.022;12.148;2023-07-31T00:00:17;12.60;99.90
792;DHT22;379;49.022;12.148;2023-07-31T00:02:43;12.50;99.90
792;DHT22;379;49.022;12.148;2023-07-31T00:05:10;12.40;99.90
792;DHT22;379;49.022;12.148;2023-07-31T00:07:37;12.30;99.90
792;DHT22;379;49.022;12.148;2023-07-31T00:10:06;12.20;99.90
792;DHT22;379;49.022;12.148;2023-07-31T00:12:33;12.10;99.90
792;DHT22;379;49.022;12.148;2023-07-31T00:15:00;12.10;99.90
792;DHT22;379;49.022;12.148;2023-07-31T00:17:26;12.10;99.90
792;DHT22;379;49.022;12.148;2023-07-31T00:19:53;12.10;99.90
792;DHT22;379;49.022;12.148;2023-07-31T00:22:20;12.10;99.90
792;DHT22;379;49.022;12.148;2023-07-31T00:24:46;12.10;99.90
792;DHT22;379;49.022;12.148;2023-07-31T00:27:14;12.10;99.90
792;DHT22;379;49.022;12.148;2023-07-31T00:29:41;12.10;99.90
792;DHT22;379;49.022;12.148;2023-07-31T00:32:08;12.00;99.90
792;DHT22;379;49.022;12.148;2023-07-31T00:34:35;12.00;99.90
792;DHT22;379;49.022;12.148;2023-07-31T00:37:02;12.00;99.90
792;DHT22;379;49.022;12.148;2023-07-31T00:39:30;12.00;99.90
792;DHT22;379;49.022;12.148;2023-07-31T00:41:57;12.00;99.90
792;DHT22;379;49.022;12.148;2023-07-31T00:44:25;11.90;99.90
792;DHT22;379;49.022;12.148;2023-07-31T00:46:52;11.90;99.90
792;DHT22;379;49.022;12.148;2023-07-31T00:49:20;11.90;99.90
792;DHT22;379;49.022;12.148;2023-07-31T00:51:47;11.90;99.90
792;DHT22;379;49.022;12.148;2023-07-31T00:54:14;11.80;99.90
792;DHT22;379;49.022;12.148;2023-07-31T00:56:41;11.70;99.90
792;DHT22;379;49.022;12.148;2023-07-31T00:59:08;11.70;99.90
792;DHT22;379;49.022;12.148;2023-07-31T01:01:36;11.60;99.90
792;DHT22;379;49.022;12.148;2023-07-31T01:04:03;11.60;99.90
792;DHT22;379;49.022;12.148;2023-07-31T01:06:37;11.70;99.90
792;DHT22;379;49.022;12.148;2023-07-31T01:09:11;11.60;99.90
792;DHT22;379;49.022;12.148;2023-07-31T01:11:46;11.60;99.90
792;DHT22;379;49.022;12.148;2023-07-31T01:14:14;11.60;99.90
792;DHT22;379;49.022;12.148;2023-07-31T01:16:42;11.60;99.90
792;DHT22;379;49.022;12.148;2023-07-31T01:19:10;11.50;99.90
792;DHT22;379;49.022;12.148;2023-07-31T01:21:54;11.50;99.90
792;DHT22;379;49.022;12.148;2023-07-31T01:24:29;11.50;99.90
792;DHT22;379;49.022;12.148;2023-07-31T01:27:02;11.40;99.90
792;DHT22;379;49.022;12.148;2023-07-31T01:29:37;11.40;99.90
792;DHT22;379;49.022;12.148;2023-07-31T01:32:05;11.30;99.90
792;DHT22;379;49.022;12.148;2023-07-31T01:34:33;11.30;99.90
792;DHT22;379;49.022;12.148;2023-07-31T01:37:02;11.30;99.90
792;DHT22;379;49.022;12.148;2023-07-31T01:39:28;11.40;99.90
792;DHT22;379;49.022;12.148;2023-07-31T01:41:55;11.50;99.90
792;DHT22;379;49.022;12.148;2023-07-31T01:44:24;11.60;99.90
792;DHT22;379;49.022;12.148;2023-07-31T01:46:50;11.60;99.90
792;DHT22;379;49.022;12.148;2023-07-31T01:49:17;11.70;99.90
792;DHT22;379;49.022;12.148;2023-07-31T01:51:44;11.70;99.90
792;DHT22;379;49.022;12.148;2023-07-31T01:54:10;11.70;99.90
792;DHT22;379;49.022;12.148;2023-07-31T01:56:37;11.70;99.90
792;DHT22;379;49.022;12.148;2023-07-31T01:59:04;11.70;99.90
792;DHT22;379;49.022;12.148;2023-07-31T02:01:32;11.60;99.90
792;DHT22;379;49.022;12.148;2023-07-31T02:03:59;11.50;99.90
792;DHT22;379;49.022;12.148;2023-07-31T02:06:27;11.40;99.90
792;DHT22;379;49.022;12.148;2023-07-31T02:08:53;11.40;99.90
792;DHT22;379;49.022;12.148;2023-07-31T02:11:20;11.30;99.90
792;DHT22;379;49.022;12.148;2023-07-31T02:13:47;11.30;99.90
792;DHT22;379;49.022;12.148;2023-07-31T02:16:13;11.20;99.90
792;DHT22;379;49.022;12.148;2023-07-31T02:18:41;11.20;99.90
792;DHT22;379;49.022;12.148;2023-07-31T02:21:08;11.30;99.90
792;DHT22;379;49.022;12.148;2023-07-31T02:23:35;11.20;99.90
792;DHT22;379;49.022;12.148;2023-07-31T02:26:01;11.20;99.90
792;DHT22;379;49.022;12.148;2023-07-31T02:28:28;11.10;99.90
792;DHT22;379;49.022;12.148;2023-07-31T02:30:55;11.10;99.90
792;DHT22;379;49.022;12.148;2023-07-31T02:33:22;11.10;99.90
792;DHT22;379;49.022;12.148;2023-07-31T02:35:50;11.10;99.90
792;DHT22;379;49.022;12.148;2023-07-31T02:38:17;11.10;99.90
792;DHT22;379;49.022;12.148;2023-07-31T02:40:44;11.10;99.90
792;DHT22;379;49.022;12.148;2023-07-31T02:43:11;11.10;99.90
792;DHT22;379;49.022;12.148;2023-07-31T02:45:37;11.20;99.90
792;DHT22;379;49.022;12.148;2023-07-31T02:48:04;11.20;99.90
792;DHT22;379;49.022;12.148;2023-07-31T02:50:31;11.30;99.90
792;DHT22;379;49.022;12.148;2023-07-31T02:52:59;11.30;99.90
792;DHT22;379;49.022;12.148;2023-07-31T02:55:26;11.30;99.90
792;DHT22;379;49.022;12.148;2023-07-31T02:57:53;11.40;99.90
792;DHT22;379;49.022;12.148;2023-07-31T03:00:20;11.40;99.90
792;DHT22;379;49.022;12.148;2023-07-31T03:02:46;11.60;99.90
792;DHT22;379;49.022;12.148;2023-07-31T03:05:13;11.60;99.90
792;DHT22;379;49.022;12.148;2023-07-31T03:07:40;11.70;99.90
792;DHT22;379;49.022;12.148;2023-07-31T03:10:08;11.60;99.90
792;DHT22;379;49.022;12.148;2023-07-31T03:12:35;11.50;99.90
792;DHT22;379;49.022;12.148;2023-07-31T03:15:02;11.50;99.90
792;DHT22;379;49.022;12.148;2023-07-31T03:17:29;11.40;99.90
792;DHT22;379;49.022;12.148;2023-07-31T03:19:55;11.30;99.90
792;DHT22;379;49.022;12.148;2023-07-31T03:22:22;11.30;99.90
792;DHT22;379;49.022;12.148;2023-07-31T03:24:49;11.30;99.90
792;DHT22;379;49.022;12.148;2023-07-31T03:27:17;11.30;99.90
792;DHT22;379;49.022;12.148;2023-07-31T03:29:44;11.20;99.90
792;DHT22;379;49.022;12.148;2023-07-31T03:32:11;11.20;99.90
792;DHT22;379;49.022;12.148;2023-07-31T03:34:38;11.20;99.90
792;DHT22;379;49.022;12.148;2023-07-31T03:37:05;11.20;99.90
792;DHT22;379;49.022;12.148;2023-07-31T03:39:32;11.20;99.90
792;DHT22;379;49.022;12.148;2023-07-31T03:41:59;11.20;99.90
792;DHT22;379;49.022;12.148;2023-07-31T03:44:27;11.20;99.90
792;DHT22;379;49.022;12.148;2023-07-31T03:46:53;11.10;99.90
792;DHT22;379;49.022;12.148;2023-07-31T03:49:20;11.10;99.90
792;DHT22;379;49.022;12.148;2023-07-31T03:51:47;11.20;99.90
792;DHT22;379;49.022;12.148;2023-07-31T03:54:14;11.20;99.90
792;DHT22;379;49.022;12.148;2023-07-31T03:56:40;11.20;99.90
792;DHT22;379;49.022;12.148;2023-07-31T03:59:07;11.20;99.90
792;DHT22;379;49.022;12.148;2023-07-31T04:01:35;11.20;99.90
792;DHT22;379;49.022;12.148;2023-07-31T04:04:02;11.30;99.90
792;DHT22;379;49.022;12.148;2023-07-31T04:06:28;11.30;99.90
792;DHT22;379;49.022;12.148;2023-07-31T04:08:55;11.30;99.90
792;DHT22;379;49.022;12.148;2023-07-31T04:11:22;11.40;99.90
792;DHT22;379;49.022;12.148;2023-07-31T04:13:49;11.40;99.90
792;DHT22;379;49.022;12.148;2023-07-31T04:16:15;11.50;99.90
792;DHT22;379;49.022;12.148;2023-07-31T04:18:43;11.50;99.90
792;DHT22;379;49.022;12.148;2023-07-31T04:21:10;11.60;99.90
792;DHT22;379;49.022;12.148;2023-07-31T04:23:37;11.60;99.90
792;DHT22;379;49.022;12.148;2023-07-31T04:26:04;11.60;99.90
792;DHT22;379;49.022;12.148;2023-07-31T04:28:31;11.70;99.90
792;DHT22;379;49.022;12.148;2023-07-31T04:30:58;11.70;99.90
792;DHT22;379;49.022;12.148;2023-07-31T04:33:24;11.80;99.90
792;DHT22;379;49.022;12.148;2023-07-31T04:35:53;11.90;99.90
792;DHT22;379;49.022;12.148;2023-07-31T04:38:21;12.00;99.90
792;DHT22;379;49.022;12.148;2023-07-31T04:40:48;12.20;99.90
792;DHT22;379;49.022;12.148;2023-07-31T04:43:15;12.40;99.90
792;DHT22;379;49.022;12.148;2023-07-31T04:45:45;12.60;99.90
792;DHT22;379;49.022;12.148;2023-07-31T04:48:12;12.80;99.90
792;DHT22;379;49.022;12.148;2023-07-31T04:50:39;13.00;99.90
792;DHT22;379;49.022;12.148;2023-07-31T04:53:07;13.20;99.90
792;DHT22;379;49.022;12.148;2023-07-31T04:55:34;13.30;99.90
792;DHT22;379;49.022;12.148;2023-07-31T04:58:01;13.50;99.90
792;DHT22;379;49.022;12.148;2023-07-31T05:00:27;13.70;99.90
792;DHT22;379;49.022;12.148;2023-07-31T05:02:54;13.80;99.90
792;DHT22;379;49.022;12.148;2023-07-31T05:05:21;14.00;99.90
792;DHT22;379;49.022;12.148;2023-07-31T05:07:47;14.20;99.90
792;DHT22;379;49.022;12.148;2023-07-31T05:10:16;14.50;99.90
792;DHT22;379;49.022;12.148;2023-07-31T05:12:42;14.70;99.90
792;DHT22;379;49.022;12.148;2023-07-31T05:15:09;14.80;99.90
792;DHT22;379;49.022;12.148;2023-07-31T05:17:36;15.00;99.90
792;DHT22;379;49.022;12.148;2023-07-31T05:20:03;15.20;99.90
792;DHT22;379;49.022;12.148;2023-07-31T05:22:30;15.30;99.90
792;DHT22;379;49.022;12.148;2023-07-31T05:24:57;15.50;99.90
792;DHT22;379;49.022;12.148;2023-07-31T05:27:25;15.70;99.90
792;DHT22;379;49.022;12.148;2023-07-31T05:29:52;15.80;99.90
792;DHT22;379;49.022;12.148;2023-07-31T05:32:18;16.00;99.90
792;DHT22;379;49.022;12.148;2023-07-31T05:34:45;16.00;99.90
792;DHT22;379;49.022;12.148;2023-07-31T05:37:12;16.10;99.90
792;DHT22;379;49.022;12.148;2023-07-31T05:39:38;16.20;99.90
792;DHT22;379;49.022;12.148;2023-07-31T05:42:05;16.50;99.90
792;DHT22;379;49.022;12.148;2023-07-31T05:44:33;16.90;99.90
792;DHT22;379;49.022;12.148;2023-07-31T05:47:00;17.30;99.90
792;DHT22;379;49.022;12.148;2023-07-31T05:49:27;18.00;99.90
792;DHT22;379;49.022;12.148;2023-07-31T05:51:53;18.60;99.90
792;DHT22;379;49.022;12.148;2023-07-31T05:54:20;19.40;98.70
792;DHT22;379;49.022;12.148;2023-07-31T05:56:47;20.00;93.10
792;DHT22;379;49.022;12.148;2023-07-31T05:59:14;20.40;90.80
792;DHT22;379;49.022;12.148;2023-07-31T06:01:42;20.40;88.40
792;DHT22;379;49.022;12.148;2023-07-31T06:04:08;20.40;87.70
792;DHT22;379;49.022;12.148;2023-07-31T06:06:35;20.70;88.10
792;DHT22;379;49.022;12.148;2023-07-31T06:09:02;21.10;88.70
792;DHT22;379;49.022;12.148;2023-07-31T06:11:29;21.70;89.00
792;DHT22;379;49.022;12.148;2023-07-31T06:13:56;22.10;86.40
792;DHT22;379;49.022;12.148;2023-07-31T06:16:23;22.30;85.10
792;DHT22;379;49.022;12.148;2023-07-31T06:18:51;22.30;80.30
792;DHT22;379;49.022;12.148;2023-07-31T06:21:18;22.20;78.70
792;DHT22;379;49.022;12.148;2023-07-31T06:23:44;22.10;76.60
792;DHT22;379;49.022;12.148;2023-07-31T06:26:11;21.90;76.10
792;DHT22;379;49.022;12.148;2023-07-31T06:28:38;22.00;74.90
792;DHT22;379;49.022;12.148;2023-07-31T06:31:04;22.30;72.40
792;DHT22;379;49.022;12.148;2023-07-31T06:33:31;22.50;70.10
792;DHT22;379;49.022;12.148;2023-07-31T06:35:59;22.70;70.30
792;DHT22;379;49.022;12.148;2023-07-31T06:38:26;22.70;68.90
792;DHT22;379;49.022;12.148;2023-07-31T06:40:53;22.40;67.20
792;DHT22;379;49.022;12.148;2023-07-31T06:43:20;22.10;69.20
792;DHT22;379;49.022;12.148;2023-07-31T06:45:46;22.00;71.40
792;DHT22;379;49.022;12.148;2023-07-31T06:48:16;22.20;72.20
792;DHT22;379;49.022;12.148;2023-07-31T06:50:42;22.50;70.10
792;DHT22;379;49.022;12.148;2023-07-31T06:53:10;22.80;69.90
792;DHT22;379;49.022;12.148;2023-07-31T06:55:37;23.00;69.80
792;DHT22;379;49.022;12.148;2023-07-31T06:58:04;23.30;66.70
792;DHT22;379;49.022;12.148;2023-07-31T07:00:31;23.40;66.00
792;DHT22;379;49.022;12.148;2023-07-31T07:02:58;23.40;66.10
792;DHT22;379;49.022;12.148;2023-07-31T07:05:24;23.70;67.20
792;DHT22;379;49.022;12.148;2023-07-31T07:07:51;23.70;68.00
792;DHT22;379;49.022;12.148;2023-07-31T07:10:19;23.90;69.10
792;DHT22;379;49.022;12.148;2023-07-31T07:12:46;24.00;70.10
792;DHT22;379;49.022;12.148;2023-07-31T07:15:13;24.30;68.70
792;DHT22;379;49.022;12.148;2023-07-31T07:17:39;24.70;68.10
792;DHT22;379;49.022;12.148;2023-07-31T07:20:08;25.00;65.90
792;DHT22;379;49.022;12.148;2023-07-31T07:22:34;25.30;64.50
792;DHT22;379;49.022;12.148;2023-07-31T07:25:01;25.30;62.70
792;DHT22;379;49.022;12.148;2023-07-31T07:27:29;25.50;64.00
792;DHT22;379;49.022;12.148;2023-07-31T07:29:56;25.70;62.60
792;DHT22;379;49.022;12.148;2023-07-31T07:32:23;25.70;62.00
792;DHT22;379;49.022;12.148;2023-07-31T07:34:50;25.80;60.50
792;DHT22;379;49.022;12.148;2023-07-31T07:37:17;25.80;59.90
792;DHT22;379;49.022;12.148;2023-07-31T07:39:44;25.80;59.80
792;DHT22;379;49.022;12.148;2023-07-31T07:42:11;25.80;59.90
792;DHT22;379;49.022;12.148;2023-07-31T07:44:39;25.60;59.00
792;DHT22;379;49.022;12.148;2023-07-31T07:47:06;25.50;59.10
792;DHT22;379;49.022;12.148;2023-07-31T07:49:33;25.20;59.50
792;DHT22;379;49.022;12.148;2023-07-31T07:52:00;25.10;60.20
792;DHT22;379;49.022;12.148;2023-07-31T07:54:27;25.00;60.10
792;DHT22;379;49.022;12.148;2023-07-31T07:56:54;24.90;60.70
792;DHT22;379;49.022;12.148;2023-07-31T07:59:21;24.90;60.70
792;DHT22;379;49.022;12.148;2023-07-31T08:01:49;24.90;60.80
792;DHT22;379;49.022;12.148;2023-07-31T08:04:16;25.00;60.90
792;DHT22;379;49.022;12.148;2023-07-31T08:06:42;25.10;60.60
792;DHT22;379;49.022;12.148;2023-07-31T08:09:09;25.50;61.00
792;DHT22;379;49.022;12.148;2023-07-31T08:11:36;26.10;60.60
792;DHT22;379;49.022;12.148;2023-07-31T08:14:03;26.50;57.70
792;DHT22;379;49.022;12.148;2023-07-31T08:16:29;26.80;56.60
792;DHT22;379;49.022;12.148;2023-07-31T08:18:57;26.80;55.70
792;DHT22;379;49.022;12.148;2023-07-31T08:21:24;26.60;55.30
792;DHT22;379;49.022;12.148;2023-07-31T08:23:51;26.50;55.50
792;DHT22;379;49.022;12.148;2023-07-31T08:26:18;26.40;55.60
792;DHT22;379;49.022;12.148;2023-07-31T08:28:45;26.20;55.20
792;DHT22;379;49.022;12.148;2023-07-31T08:31:12;26.00;55.60
792;DHT22;379;49.022;12.148;2023-07-31T08:33:39;25.90;56.00
792;DHT22;379;49.022;12.148;2023-07-31T08:36:07;25.90;56.40
792;DHT22;379;49.022;12.148;2023-07-31T08:38:34;25.90;56.30
792;DHT22;379;49.022;12.148;2023-07-31T08:41:03;25.70;56.80
792;DHT22;379;49.022;12.148;2023-07-31T08:43:30;25.60;56.70
792;DHT22;379;49.022;12.148;2023-07-31T08:45:57;25.50;56.60
792;DHT22;379;49.022;12.148;2023-07-31T08:48:24;25.40;56.80
792;DHT22;379;49.022;12.148;2023-07-31T08:50:52;25.40;57.30
792;DHT22;379;49.022;12.148;2023-07-31T08:53:21;25.60;57.60
792;DHT22;379;49.022;12.148;2023-07-31T08:55:48;25.70;57.10
792;DHT22;379;49.022;12.148;2023-07-31T08:58:17;25.80;56.50
792;DHT22;379;49.022;12.148;2023-07-31T09:00:53;25.80;56.50
792;DHT22;379;49.022;12.148;2023-07-31T09:03:26;25.90;57.00
792;DHT22;379;49.022;12.148;2023-07-31T09:05:58;25.90;55.80
792;DHT22;379;49.022;12.148;2023-07-31T09:08:27;25.90;56.40
792;DHT22;379;49.022;12.148;2023-07-31T09:10:59;26.00;56.40
792;DHT22;379;49.022;12.148;2023-07-31T09:13:29;26.00;56.20
792;DHT22;379;49.022;12.148;2023-07-31T09:15:56;26.00;55.80
792;DHT22;379;49.022;12.148;2023-07-31T09:18:26;26.00;54.90
792;DHT22;379;49.022;12.148;2023-07-31T09:21:03;26.20;55.30
792;DHT22;379;49.022;12.148;2023-07-31T09:23:45;26.30;54.50
792;DHT22;379;49.022;12.148;2023-07-31T09:26:28;26.40;54.20
792;DHT22;379;49.022;12.148;2023-07-31T09:28:55;26.30;53.60
792;DHT22;379;49.022;12.148;2023-07-31T09:31:32;26.20;53.30
792;DHT22;379;49.022;12.148;2023-07-31T09:33:59;26.30;54.10
792;DHT22;379;49.022;12.148;2023-07-31T09:36:29;26.50;54.00
792;DHT22;379;49.022;12.148;2023-07-31T09:39:01;26.60;53.90
792;DHT22;379;49.022;12.148;2023-07-31T09:41:28;26.60;53.30
792;DHT22;379;49.022;12.148;2023-07-31T09:43:55;26.50;53.80
792;DHT22;379;49.022;12.148;2023-07-31T09:46:22;26.50;53.30
792;DHT22;379;49.022;12.148;2023-07-31T09:48:48;26.10;52.50
792;DHT22;379;49.022;12.148;2023-07-31T09:51:15;26.10;53.50
792;DHT22;379;49.022;12.148;2023-07-31T09:53:49;26.20;54.20
792;DHT22;379;49.022;12.148;2023-07-31T09:56:18;26.40;54.50
792;DHT22;379;49.022;12.148;2023-07-31T09:58:46;26.50;53.50
792;DHT22;379;49.022;12.148;2023-07-31T10:01:13;26.60;53.20
792;DHT22;379;49.022;12.148;2023-07-31T10:03:41;26.50;53.90
792;DHT22;379;49.022;12.148;2023-07-31T10:06:09;26.40;54.10
792;DHT22;379;49.022;12.148;2023-07-31T10:08:36;26.10;53.40
792;DHT22;379;49.022;12.148;2023-07-31T10:11:04;25.80;53.50
792;DHT22;379;49.022;12.148;2023-07-31T10:13:33;25.50;54.30
792;DHT22;379;49.022;12.148;2023-07-31T10:16:00;25.30;55.60
792;DHT22;379;49.022;12.148;2023-07-31T10:18:28;25.10;56.20
792;DHT22;379;49.022;12.148;2023-07-31T10:20:56;25.00;56.90
792;DHT22;379;49.022;12.148;2023-07-31T10:23:24;24.60;55.70
792;DHT22;379;49.022;12.148;2023-07-31T10:25:53;24.50;55.90
792;DHT22;379;49.022;12.148;2023-07-31T10:28:20;24.50;56.60
792;DHT22;379;49.022;12.148;2023-07-31T10:30:49;24.70;56.60
792;DHT22;379;49.022;12.148;2023-07-31T10:33:17;24.80;56.10
792;DHT22;379;49.022;12.148;2023-07-31T10:35:45;25.00;55.40
792;DHT22;379;49.022;12.148;2023-07-31T10:38:13;25.20;55.70
792;DHT22;379;49.022;12.148;2023-07-31T10:40:40;25.40;54.90
792;DHT22;379;49.022;12.148;2023-07-31T10:43:07;25.80;54.40
792;DHT22;379;49.022;12.148;2023-07-31T10:45:38;26.20;54.20
792;DHT22;379;49.022;12.148;2023-07-31T10:48:12;26.60;52.80
792;DHT22;379;49.022;12.148;2023-07-31T10:50:45;27.00;52.10
792;DHT22;379;49.022;12.148;2023-07-31T10:53:22;27.30;50.70
792;DHT22;379;49.022;12.148;2023-07-31T10:55:49;27.40;50.30
792;DHT22;379;49.022;12.148;2023-07-31T10:58:19;27.50;49.50
792;DHT22;379;49.022;12.148;2023-07-31T11:00:46;27.50;49.00
792;DHT22;379;49.022;12.148;2023-07-31T11:03:16;27.40;49.10
792;DHT22;379;49.022;12.148;2023-07-31T11:05:47;27.40;49.10
792;DHT22;379;49.022;12.148;2023-07-31T11:08:16;27.30;49.00
792;DHT22;379;49.022;12.148;2023-07-31T11:10:45;27.40;48.70
792;DHT22;379;49.022;12.148;2023-07-31T11:13:12;27.50;48.80
792;DHT22;379;49.022;12.148;2023-07-31T11:15:39;27.40;48.90
792;DHT22;379;49.022;12.148;2023-07-31T11:18:06;27.20;48.90
792;DHT22;379;49.022;12.148;2023-07-31T11:20:36;26.80;49.30
792;DHT22;379;49.022;12.148;2023-07-31T11:23:05;26.60;49.70
792;DHT22;379;49.022;12.148;2023-07-31T11:25:32;26.30;50.00
792;DHT22;379;49.022;12.148;2023-07-31T11:28:03;26.00;49.80
792;DHT22;379;49.022;12.148;2023-07-31T11:30:30;25.80;51.10
792;DHT22;379;49.022;12.148;2023-07-31T11:32:56;25.80;52.10
792;DHT22;379;49.022;12.148;2023-07-31T11:35:23;26.00;52.20
792;DHT22;379;49.022;12.148;2023-07-31T11:37:51;26.10;52.00
792;DHT22;379;49.022;12.148;2023-07-31T11:40:18;26.00;51.40
792;DHT22;379;49.022;12.148;2023-07-31T11:42:45;25.90;50.70
792;DHT22;379;49.022;12.148;2023-07-31T11:45:12;25.80;50.70
792;DHT22;379;49.022;12.148;2023-07-31T11:47:39;25.80;52.40
792;DHT22;379;49.022;12.148;2023-07-31T11:50:11;25.60;51.40
792;DHT22;379;49.022;12.148;2023-07-31T11:52:41;25.30;51.10
792;DHT22;379;49.022;12.148;2023-07-31T11:55:11;24.80;52.30
792;DHT22;379;49.022;12.148;2023-07-31T11:57:39;24.50;52.60
792;DHT22;379;49.022;12.148;2023-07-31T12:00:08;24.40;54.10
792;DHT22;379;49.022;12.148;2023-07-31T12:02:36;24.70;55.20
792;DHT22;379;49.022;12.148;2023-07-31T12:05:05;24.90;54.40
792;DHT22;379;49.022;12.148;2023-07-31T12:07:46;25.00;54.00
792;DHT22;379;49.022;12.148;2023-07-31T12:10:28;25.00;53.70
792;DHT22;379;49.022;12.148;2023-07-31T12:12:57;25.10;53.70
792;DHT22;379;49.022;12.148;2023-07-31T12:15:29;25.10;53.40
792;DHT22;379;49.022;12.148;2023-07-31T12:17:57;25.00;54.30
792;DHT22;379;49.022;12.148;2023-07-31T12:20:24;25.00;54.00
792;DHT22;379;49.022;12.148;2023-07-31T12:22:51;25.00;53.30
792;DHT22;379;49.022;12.148;2023-07-31T12:25:17;25.10;53.80
792;DHT22;379;49.022;12.148;2023-07-31T12:27:46;25.20;54.20
792;DHT22;379;49.022;12.148;2023-07-31T12:30:26;25.50;54.30
792;DHT22;379;49.022;12.148;2023-07-31T12:32:53;25.80;53.50
792;DHT22;379;49.022;12.148;2023-07-31T12:35:20;26.20;53.40
792;DHT22;379;49.022;12.148;2023-07-31T12:37:47;26.50;52.80
792;DHT22;379;49.022;12.148;2023-07-31T12:40:13;26.60;52.20
792;DHT22;379;49.022;12.148;2023-07-31T12:42:41;26.70;51.70
792;DHT22;379;49.022;12.148;2023-07-31T12:45:09;26.90;51.10
792;DHT22;379;49.022;12.148;2023-07-31T12:47:36;27.10;50.40
792;DHT22;379;49.022;12.148;2023-07-31T12:50:03;27.10;49.90
792;DHT22;379;49.022;12.148;2023-07-31T12:52:30;27.10;49.60
792;DHT22;379;49.022;12.148;2023-07-31T12:54:56;27.20;49.70
792;DHT22;379;49.022;12.148;2023-07-31T12:57:23;27.40;49.90
792;DHT22;379;49.022;12.148;2023-07-31T12:59:50;27.40;49.00
792;DHT22;379;49.022;12.148;2023-07-31T13:02:18;27.30;49.00
792;DHT22;379;49.022;12.148;2023-07-31T13:04:44;27.40;49.00
792;DHT22;379;49.022;12.148;2023-07-31T13:07:11;27.70;48.80
792;DHT22;379;49.022;12.148;2023-07-31T13:09:38;27.80;48.80
792;DHT22;379;49.022;12.148;2023-07-31T13:12:05;27.90;48.70
792;DHT22;379;49.022;12.148;2023-07-31T13:14:32;27.90;48.60
792;DHT22;379;49.022;12.148;2023-07-31T13:16:59;27.80;48.00
792;DHT22;379;49.022;12.148;2023-07-31T13:19:27;27.60;48.40
792;DHT22;379;49.022;12.148;2023-07-31T13:21:54;27.50;49.00
792;DHT22;379;49.022;12.148;2023-07-31T13:24:20;27.50;49.20
792;DHT22;379;49.022;12.148;2023-07-31T13:26:47;27.50;48.70
792;DHT22;379;49.022;12.148;2023-07-31T13:29:14;27.50;49.40
792;DHT22;379;49.022;12.148;2023-07-31T13:31:41;27.40;49.50
792;DHT22;379;49.022;12.148;2023-07-31T13:34:07;27.20;49.20
792;DHT22;379;49.022;12.148;2023-07-31T13:36:35;27.10;49.20
792;DHT22;379;49.022;12.148;2023-07-31T13:39:02;27.10;49.90
792;DHT22;379;49.022;12.148;2023-07-31T13:41:29;27.10;49.80
792;DHT22;379;49.022;12.148;2023-07-31T13:43:56;27.20;50.30
792;DHT22;379;49.022;12.148;2023-07-31T13:46:23;27.20;50.00
792;DHT22;379;49.022;12.148;2023-07-31T13:48:50;27.40;50.00
792;DHT22;379;49.022;12.148;2023-07-31T13:51:20;27.50;49.30
792;DHT22;379;49.022;12.148;2023-07-31T13:53:48;27.40;48.70
792;DHT22;379;49.022;12.148;2023-07-31T13:56:14;27.40;49.00
792;DHT22;379;49.022;12.148;2023-07-31T13:58:41;27.30;48.90
792;DHT22;379;49.022;12.148;2023-07-31T14:01:08;27.20;49.30
792;DHT22;379;49.022;12.148;2023-07-31T14:03:35;27.00;49.20
792;DHT22;379;49.022;12.148;2023-07-31T14:06:02;27.00;49.10
792;DHT22;379;49.022;12.148;2023-07-31T14:08:29;26.90;49.70
792;DHT22;379;49.022;12.148;2023-07-31T14:10:57;26.90;50.20
792;DHT22;379;49.022;12.148;2023-07-31T14:13:24;27.10;50.40
792;DHT22;379;49.022;12.148;2023-07-31T14:15:51;27.20;49.70
792;DHT22;379;49.022;12.148;2023-07-31T14:18:18;27.40;49.10
792;DHT22;379;49.022;12.148;2023-07-31T14:20:45;27.80;48.80
792;DHT22;379;49.022;12.148;2023-07-31T14:23:12;28.20;48.80
792;DHT22;379;49.022;12.148;2023-07-31T14:25:38;28.40;47.80
792;DHT22;379;49.022;12.148;2023-07-31T14:28:06;28.60;47.70
792;DHT22;379;49.022;12.148;2023-07-31T14:30:33;28.70;47.60
792;DHT22;379;49.022;12.148;2023-07-31T14:33:00;28.70;47.20
792;DHT22;379;49.022;12.148;2023-07-31T14:35:27;28.70;46.90
792;DHT22;379;49.022;12.148;2023-07-31T14:37:54;28.70;47.00
792;DHT22;379;49.022;12.148;2023-07-31T14:40:21;28.70;47.20
792;DHT22;379;49.022;12.148;2023-07-31T14:42:48;28.70;46.70
792;DHT22;379;49.022;12.148;2023-07-31T14:45:16;28.50;47.00
792;DHT22;379;49.022;12.148;2023-07-31T14:47:43;28.20;46.90
792;DHT22;379;49.022;12.148;2023-07-31T14:50:10;27.90;46.90
792;DHT22;379;49.022;12.148;2023-07-31T14:52:37;27.80;47.90
792;DHT22;379;49.022;12.148;2023-07-31T14:55:04;27.80;48.40
792;DHT22;379;49.022;12.148;2023-07-31T14:57:31;27.70;47.10
792;DHT22;379;49.022;12.148;2023-07-31T14:59:58;27.80;48.40
792;DHT22;379;49.022;12.148;2023-07-31T15:02:27;27.70;48.90
792;DHT22;379;49.022;12.148;2023-07-31T15:04:54;27.80;49.00
792;DHT22;379;49.022;12.148;2023-07-31T15:07:20;28.00;48.60
792;DHT22;379;49.022;12.148;2023-07-31T15:09:47;28.20;48.40
792;DHT22;379;49.022;12.148;2023-07-31T15:12:14;28.30;48.10
792;DHT22;379;49.022;12.148;2023-07-31T15:14:40;28.40;47.40
792;DHT22;379;49.022;12.148;2023-07-31T15:17:07;28.30;47.00
792;DHT22;379;49.022;12.148;2023-07-31T15:19:35;28.30;47.00
792;DHT22;379;49.022;12.148;2023-07-31T15:22:03;28.30;47.00
792;DHT22;379;49.022;12.148;2023-07-31T15:24:30;28.40;47.00
792;DHT22;379;49.022;12.148;2023-07-31T15:26:57;28.30;46.30
792;DHT22;379;49.022;12.148;2023-07-31T15:29:24;28.20;46.20
792;DHT22;379;49.022;12.148;2023-07-31T15:31:51;28.00;47.30
792;DHT22;379;49.022;12.148;2023-07-31T15:34:17;27.70;47.20
792;DHT22;379;49.022;12.148;2023-07-31T15:36:46;27.30;47.70
792;DHT22;379;49.022;12.148;2023-07-31T15:39:13;27.10;48.50
792;DHT22;379;49.022;12.148;2023-07-31T15:41:40;26.80;49.00
792;DHT22;379;49.022;12.148;2023-07-31T15:44:07;26.70;49.00
792;DHT22;379;49.022;12.148;2023-07-31T15:46:34;26.50;49.40
792;DHT22;379;49.022;12.148;2023-07-31T15:49:01;26.50;49.70
792;DHT22;379;49.022;12.148;2023-07-31T15:51:28;26.50;49.80
792;DHT22;379;49.022;12.148;2023-07-31T15:53:56;26.50;50.10
792;DHT22;379;49.022;12.148;2023-07-31T15:56:22;26.50;50.30
792;DHT22;379;49.022;12.148;2023-07-31T15:58:49;26.40;50.40
792;DHT22;379;49.022;12.148;2023-07-31T16:01:16;26.30;50.40
792;DHT22;379;49.022;12.148;2023-07-31T16:03:43;26.20;50.40
792;DHT22;379;49.022;12.148;2023-07-31T16:06:10;26.00;50.80
792;DHT22;379;49.022;12.148;2023-07-31T16:08:36;25.90;51.40
792;DHT22;379;49.022;12.148;2023-07-31T16:11:08;25.80;51.70
792;DHT22;379;49.022;12.148;2023-07-31T16:13:35;25.70;51.40
792;DHT22;379;49.022;12.148;2023-07-31T16:16:01;25.50;52.10
792;DHT22;379;49.022;12.148;2023-07-31T16:18:29;25.40;52.70